createdAt,value
2019-03-09T00:00:47.835Z,0.37
2019-03-09T00:03:16.753Z,0.63
2019-03-09T00:05:45.141Z,0.67
2019-03-09T00:08:13.566Z,0.50
2019-03-09T00:10:41.956Z,1.00
2019-03-09T00:13:10.571Z,0.40
2019-03-09T00:15:39.793Z,0.50
2019-03-09T00:18:08.219Z,0.30
2019-03-09T00:20:36.841Z,0.43
2019-03-09T00:23:14.124Z,0.40
2019-03-09T00:25:44.448Z,0.50
2019-03-09T00:28:21.722Z,1.60
2019-03-09T00:31:01.263Z,0.87
2019-03-09T00:33:29.964Z,0.33
2019-03-09T00:35:58.051Z,0.30
2019-03-09T00:38:26.605Z,0.40
2019-03-09T00:40:54.841Z,0.50
2019-03-09T00:43:23.126Z,0.37
2019-03-09T00:45:51.163Z,0.30
2019-03-09T00:48:22.898Z,0.33
2019-03-09T00:50:51.107Z,0.83
2019-03-09T00:53:19.304Z,0.47
2019-03-09T00:55:47.644Z,0.30
2019-03-09T00:58:15.812Z,0.20
2019-03-09T01:00:43.918Z,1.03
2019-03-09T01:03:12.231Z,0.40
2019-03-09T01:05:40.243Z,0.23
2019-03-09T01:08:08.381Z,0.70
2019-03-09T01:10:36.404Z,0.60
2019-03-09T01:13:04.565Z,0.50
2019-03-09T01:15:32.689Z,1.27
2019-03-09T01:18:00.760Z,0.50
2019-03-09T01:20:28.937Z,0.70
2019-03-09T01:22:57.068Z,0.20
2019-03-09T01:25:25.159Z,0.40
2019-03-09T01:27:53.191Z,1.10
2019-03-09T01:30:21.660Z,0.60
2019-03-09T01:32:49.787Z,0.50
2019-03-09T01:35:19.204Z,0.77
2019-03-09T01:37:47.350Z,0.73
2019-03-09T01:40:15.499Z,1.57
2019-03-09T01:42:43.683Z,0.50
2019-03-09T01:45:13.739Z,0.50
2019-03-09T01:47:41.857Z,0.60
2019-03-09T01:50:10.100Z,0.50
2019-03-09T01:52:38.220Z,0.30
2019-03-09T01:55:06.326Z,1.03
2019-03-09T01:57:34.404Z,0.67
2019-03-09T02:00:02.498Z,0.40
2019-03-09T02:02:30.770Z,0.47
2019-03-09T02:04:58.924Z,0.40
2019-03-09T02:07:26.972Z,0.73
2019-03-09T02:09:54.997Z,1.73
2019-03-09T02:12:23.220Z,0.40
2019-03-09T02:14:51.359Z,0.40
2019-03-09T02:17:19.381Z,0.60
2019-03-09T02:19:47.390Z,1.10
2019-03-09T02:22:15.804Z,0.43
2019-03-09T02:24:44.014Z,0.50
2019-03-09T02:27:12.097Z,0.50
2019-03-09T02:29:40.860Z,0.40
2019-03-09T02:32:08.998Z,0.50
2019-03-09T02:34:37.008Z,0.40
2019-03-09T02:37:05.060Z,0.67
2019-03-09T02:39:43.705Z,0.73
2019-03-09T02:42:11.709Z,0.30
2019-03-09T02:44:39.748Z,0.57
2019-03-09T02:47:07.880Z,0.43
2019-03-09T02:49:36.267Z,0.50
2019-03-09T02:52:04.258Z,0.47
2019-03-09T02:54:32.265Z,0.33
2019-03-09T02:57:00.240Z,0.50
2019-03-09T02:59:28.417Z,0.60
2019-03-09T03:02:22.058Z,0.60
2019-03-09T03:04:50.075Z,0.40
2019-03-09T03:07:23.770Z,0.40
2019-03-09T03:09:52.010Z,0.50
2019-03-09T03:12:22.557Z,0.47
2019-03-09T03:14:50.691Z,0.73
2019-03-09T03:17:19.050Z,1.17
2019-03-09T03:19:47.175Z,0.60
2019-03-09T03:22:15.322Z,0.50
2019-03-09T03:24:43.805Z,1.70
2019-03-09T03:27:11.889Z,0.47
2019-03-09T03:29:39.948Z,0.50
2019-03-09T03:32:08.018Z,0.60
2019-03-09T03:34:36.146Z,0.50
2019-03-09T03:37:04.340Z,0.57
2019-03-09T03:39:35.163Z,0.50
2019-03-09T03:42:03.166Z,0.83
2019-03-09T03:44:32.779Z,0.80
2019-03-09T03:47:00.946Z,1.13
2019-03-09T03:49:29.059Z,0.80
2019-03-09T03:51:57.166Z,0.53
2019-03-09T03:54:25.442Z,0.30
2019-03-09T03:56:53.700Z,0.40
2019-03-09T03:59:21.884Z,0.60
2019-03-09T04:01:49.947Z,0.93
2019-03-09T04:04:18.024Z,0.40
2019-03-09T04:06:46.024Z,0.40
2019-03-09T04:09:14.028Z,0.30
2019-03-09T04:11:42.166Z,0.60
2019-03-09T04:14:10.641Z,0.63
2019-03-09T04:16:38.721Z,0.50
2019-03-09T04:19:06.830Z,0.40
2019-03-09T04:21:34.900Z,0.50
2019-03-09T04:24:03.146Z,0.30
2019-03-09T04:26:31.212Z,2.17
2019-03-09T04:28:59.552Z,0.37
2019-03-09T04:31:27.732Z,0.40
2019-03-09T04:33:55.835Z,0.50
2019-03-09T04:36:23.945Z,0.90
2019-03-09T04:38:52.041Z,0.43
2019-03-09T04:41:20.168Z,0.70
2019-03-09T04:43:48.223Z,0.37
2019-03-09T04:46:18.318Z,0.30
2019-03-09T04:48:46.246Z,0.70
2019-03-09T04:51:14.243Z,0.47
2019-03-09T04:53:42.339Z,0.30
2019-03-09T04:56:10.457Z,1.60
2019-03-09T04:58:38.557Z,0.30
2019-03-09T05:01:06.581Z,0.37
2019-03-09T05:03:34.645Z,0.43
2019-03-09T05:06:02.716Z,0.50
2019-03-09T05:08:46.316Z,0.97
2019-03-09T05:11:16.231Z,0.57
2019-03-09T05:13:46.733Z,3.17
2019-03-09T05:16:17.164Z,0.60
2019-03-09T05:18:45.199Z,0.43
2019-03-09T05:21:13.371Z,0.33
2019-03-09T05:23:41.440Z,1.63
2019-03-09T05:26:11.388Z,0.30
2019-03-09T05:28:39.411Z,0.50
2019-03-09T05:31:07.961Z,0.47
2019-03-09T05:33:35.943Z,0.40
2019-03-09T05:36:03.910Z,0.60
2019-03-09T05:38:32.041Z,0.63
2019-03-09T05:41:00.148Z,0.50
2019-03-09T05:43:28.373Z,0.57
2019-03-09T05:45:56.763Z,1.33
2019-03-09T05:48:24.839Z,0.30
2019-03-09T05:50:53.881Z,1.13
2019-03-09T05:53:22.568Z,0.70
2019-03-09T05:55:50.799Z,0.70
2019-03-09T05:58:19.000Z,0.53
2019-03-09T06:00:47.023Z,0.40
2019-03-09T06:03:15.036Z,0.50
2019-03-09T06:05:47.392Z,0.40
2019-03-09T06:08:15.676Z,0.73
2019-03-09T06:10:43.765Z,0.90
2019-03-09T06:13:11.737Z,0.30
2019-03-09T06:15:39.798Z,0.73
2019-03-09T06:18:07.912Z,0.67
2019-03-09T06:20:35.988Z,1.17
2019-03-09T06:23:04.058Z,0.50
2019-03-09T06:25:32.060Z,0.40
2019-03-09T06:28:00.263Z,0.30
2019-03-09T06:30:28.403Z,0.50
2019-03-09T06:33:14.686Z,0.40
2019-03-09T06:35:43.371Z,0.30
2019-03-09T06:38:30.501Z,2.30
2019-03-09T06:41:03.014Z,0.33
2019-03-09T06:43:28.728Z,0.83
2019-03-09T06:45:56.970Z,0.33
2019-03-09T06:48:25.061Z,0.53
2019-03-09T06:50:53.148Z,0.40
2019-03-09T06:53:21.397Z,0.50
2019-03-09T06:55:49.518Z,0.80
2019-03-09T06:58:18.215Z,0.93
2019-03-09T07:00:46.441Z,0.60
2019-03-09T07:03:14.583Z,0.20
2019-03-09T07:05:42.588Z,1.00
2019-03-09T07:08:10.671Z,1.33
2019-03-09T07:10:38.816Z,0.97
2019-03-09T07:13:06.867Z,0.63
2019-03-09T07:15:42.194Z,0.67
2019-03-09T07:18:11.395Z,3.27
2019-03-09T07:20:39.458Z,0.80
2019-03-09T07:23:07.518Z,1.27
2019-03-09T07:25:35.833Z,1.73
2019-03-09T07:28:04.992Z,5.47
2019-03-09T07:30:33.216Z,3.23
2019-03-09T07:33:01.263Z,1.63
2019-03-09T07:35:29.311Z,1.57
2019-03-09T07:37:57.371Z,2.27
2019-03-09T07:40:25.374Z,3.30
2019-03-09T07:42:53.391Z,1.60
2019-03-09T07:45:21.750Z,3.80
2019-03-09T07:47:49.766Z,2.43
2019-03-09T07:50:17.949Z,1.77
2019-03-09T07:52:46.098Z,1.77
2019-03-09T07:55:14.840Z,5.60
2019-03-09T07:57:42.904Z,1.47
2019-03-09T08:00:14.037Z,2.23
2019-03-09T08:02:41.749Z,4.60
2019-03-09T08:05:09.824Z,1.80
2019-03-09T08:07:37.966Z,1.33
2019-03-09T08:10:06.368Z,1.93
2019-03-09T08:12:34.386Z,0.80
2019-03-09T08:15:02.412Z,1.93
2019-03-09T08:17:30.383Z,3.10
2019-03-09T08:19:58.571Z,1.77
2019-03-09T08:22:26.532Z,1.07
2019-03-09T08:24:54.582Z,5.97
2019-03-09T08:27:22.710Z,3.67
2019-03-09T08:29:50.747Z,3.73
2019-03-09T08:32:18.934Z,3.70
2019-03-09T08:34:47.036Z,3.67
2019-03-09T08:37:15.023Z,2.63
2019-03-09T08:39:43.073Z,2.50
2019-03-09T08:42:11.087Z,2.00
2019-03-09T08:44:39.189Z,2.47
2019-03-09T08:47:07.282Z,3.47
2019-03-09T08:49:35.703Z,3.07
2019-03-09T08:52:03.793Z,3.37
2019-03-09T08:54:31.894Z,1.90
2019-03-09T08:56:59.939Z,2.50
2019-03-09T08:59:28.120Z,5.23
2019-03-09T09:01:56.094Z,2.97
2019-03-09T09:04:24.151Z,3.20
2019-03-09T09:06:52.112Z,4.87
2019-03-09T09:09:20.137Z,3.27
2019-03-09T09:11:48.378Z,1.77
2019-03-09T09:14:24.026Z,2.43
2019-03-09T09:16:52.164Z,1.87
2019-03-09T09:19:20.307Z,1.33
2019-03-09T09:21:48.241Z,2.17
2019-03-09T09:24:16.616Z,1.20
2019-03-09T09:26:45.142Z,1.90
2019-03-09T09:29:13.176Z,3.67
2019-03-09T09:31:41.147Z,2.93
2019-03-09T09:34:09.227Z,2.80
2019-03-09T09:36:37.212Z,2.93
2019-03-09T09:39:07.150Z,1.03
2019-03-09T09:41:35.263Z,1.60
2019-03-09T09:44:04.494Z,1.77
2019-03-09T09:46:32.668Z,2.47
2019-03-09T09:49:00.781Z,2.43
2019-03-09T09:51:28.971Z,3.30
2019-03-09T09:53:56.930Z,3.47
2019-03-09T09:56:24.939Z,1.80
2019-03-09T09:58:52.963Z,2.63
2019-03-09T10:01:20.947Z,2.33
2019-03-09T10:03:49.099Z,1.63
2019-03-09T10:06:17.303Z,3.33
2019-03-09T10:08:45.299Z,1.77
2019-03-09T10:11:13.294Z,2.70
2019-03-09T10:13:41.328Z,1.27
2019-03-09T10:16:09.512Z,2.40
2019-03-09T10:18:37.530Z,2.53
2019-03-09T10:21:05.571Z,1.17
2019-03-09T10:23:33.578Z,1.97
2019-03-09T10:26:01.640Z,2.27
2019-03-09T10:28:29.583Z,1.80
2019-03-09T10:30:57.549Z,1.07
2019-03-09T10:33:25.679Z,2.13
2019-03-09T10:35:53.751Z,2.03
2019-03-09T10:38:22.149Z,1.17
2019-03-09T10:40:50.213Z,2.17
2019-03-09T10:43:18.238Z,1.60
2019-03-09T10:45:46.977Z,2.20
2019-03-09T10:48:15.027Z,2.87
2019-03-09T10:50:43.099Z,1.80
2019-03-09T10:53:11.132Z,2.97
2019-03-09T10:55:42.699Z,1.70
2019-03-09T10:58:10.955Z,3.17
2019-03-09T11:00:38.980Z,1.43
2019-03-09T11:03:07.058Z,6.87
2019-03-09T11:05:35.187Z,8.97
2019-03-09T11:08:03.232Z,4.07
2019-03-09T11:10:31.329Z,4.80
2019-03-09T11:12:59.348Z,1.50
2019-03-09T11:15:27.368Z,3.43
2019-03-09T11:17:55.375Z,1.10
2019-03-09T11:20:23.589Z,6.57
2019-03-09T11:22:51.578Z,1.73
2019-03-09T11:25:19.616Z,2.23
2019-03-09T11:27:47.627Z,3.50
2019-03-09T11:30:25.363Z,2.87
2019-03-09T11:32:53.393Z,5.90
2019-03-09T11:35:21.487Z,2.93
2019-03-09T11:37:49.616Z,2.77
2019-03-09T11:40:17.677Z,3.33
2019-03-09T11:42:45.783Z,6.80
2019-03-09T11:45:13.975Z,4.87
2019-03-09T11:47:41.987Z,8.33
2019-03-09T11:50:10.451Z,6.77
2019-03-09T11:52:38.969Z,4.37
2019-03-09T11:55:07.979Z,4.63
2019-03-09T11:57:36.104Z,2.57
2019-03-09T12:00:07.108Z,3.57
2019-03-09T12:02:38.748Z,4.00
2019-03-09T12:05:05.119Z,3.67
2019-03-09T12:07:33.525Z,4.07
2019-03-09T12:10:01.597Z,5.17
2019-03-09T12:12:29.528Z,5.30
2019-03-09T12:14:57.747Z,8.70
2019-03-09T12:17:26.499Z,4.37
2019-03-09T12:19:54.559Z,5.20
2019-03-09T12:22:22.904Z,4.90
2019-03-09T12:24:52.587Z,3.43
2019-03-09T12:27:20.638Z,2.93
2019-03-09T12:29:48.661Z,3.53
2019-03-09T12:32:16.793Z,4.33
2019-03-09T12:34:44.769Z,8.30
2019-03-09T12:37:12.830Z,5.60
2019-03-09T12:39:43.724Z,6.37
2019-03-09T12:42:11.760Z,4.33
2019-03-09T12:44:39.905Z,4.57
2019-03-09T12:47:08.010Z,6.93
2019-03-09T12:49:36.212Z,3.87
2019-03-09T12:52:04.295Z,6.90
2019-03-09T12:54:32.382Z,3.67
2019-03-09T12:57:00.473Z,3.77
2019-03-09T12:59:28.657Z,4.60
2019-03-09T13:01:56.600Z,7.90
2019-03-09T13:04:24.602Z,5.70
2019-03-09T13:06:52.600Z,5.27
2019-03-09T13:09:20.663Z,4.87
2019-03-09T13:11:48.731Z,6.50
2019-03-09T13:14:18.373Z,6.90
2019-03-09T13:16:46.444Z,8.93
2019-03-09T13:19:14.530Z,5.17
2019-03-09T13:21:42.843Z,9.10
2019-03-09T13:24:10.897Z,10.73
2019-03-09T13:26:38.925Z,6.67
2019-03-09T13:29:07.045Z,7.37
2019-03-09T13:31:35.081Z,6.10
2019-03-09T13:34:03.117Z,5.57
2019-03-09T13:36:31.153Z,4.93
2019-03-09T13:38:59.157Z,5.63
2019-03-09T13:41:27.199Z,4.80
2019-03-09T13:43:55.203Z,4.57
2019-03-09T13:46:23.263Z,7.70
2019-03-09T13:48:51.343Z,5.60
2019-03-09T13:51:19.407Z,7.80
2019-03-09T13:53:47.412Z,4.73
2019-03-09T13:56:15.444Z,4.00
2019-03-09T13:58:43.425Z,5.03
2019-03-09T14:01:11.460Z,7.67
2019-03-09T14:03:39.516Z,2.13
2019-03-09T14:06:09.883Z,4.73
2019-03-09T14:08:37.924Z,5.47
2019-03-09T14:11:06.120Z,9.93
2019-03-09T14:13:34.170Z,5.27
2019-03-09T14:16:02.205Z,6.47
2019-03-09T14:18:30.279Z,5.40
2019-03-09T14:20:58.357Z,4.10
2019-03-09T14:23:26.442Z,4.77
2019-03-09T14:25:54.491Z,4.93
2019-03-09T14:28:22.768Z,6.27
2019-03-09T14:30:50.821Z,5.13
2019-03-09T14:33:20.779Z,6.37
2019-03-09T14:35:48.484Z,4.63
2019-03-09T14:38:16.403Z,7.80
2019-03-09T14:40:44.457Z,8.00
2019-03-09T14:43:12.565Z,7.57
2019-03-09T14:45:40.649Z,8.83
2019-03-09T14:48:08.784Z,9.30
2019-03-09T14:50:36.992Z,10.40
2019-03-09T14:53:05.177Z,12.33
2019-03-09T14:55:33.206Z,8.47
2019-03-09T14:58:01.300Z,6.40
2019-03-09T15:00:29.370Z,7.97
2019-03-09T15:02:57.418Z,9.17
2019-03-09T15:05:25.499Z,10.47
2019-03-09T15:07:53.618Z,14.23
2019-03-09T15:10:21.797Z,7.93
2019-03-09T15:12:49.810Z,14.20
2019-03-09T15:15:17.863Z,8.93
2019-03-09T15:17:46.179Z,14.77
2019-03-09T15:20:14.317Z,14.20
2019-03-09T15:22:42.343Z,17.23
2019-03-09T15:25:10.520Z,10.43
2019-03-09T15:27:38.594Z,4.23
2019-03-09T15:30:07.349Z,7.83
2019-03-09T15:32:35.487Z,9.97
2019-03-09T15:35:03.560Z,9.80
2019-03-09T15:37:31.744Z,10.83
2019-03-09T15:39:59.963Z,12.60
2019-03-09T15:42:28.268Z,13.53
2019-03-09T15:44:56.327Z,11.73
2019-03-09T15:47:24.330Z,8.23
2019-03-09T15:49:52.604Z,10.47
2019-03-09T15:52:20.674Z,13.97
2019-03-09T15:54:48.794Z,9.63
2019-03-09T15:57:16.823Z,16.27
2019-03-09T15:59:45.718Z,15.93
2019-03-09T16:02:13.849Z,18.37
2019-03-09T16:04:42.206Z,15.43
2019-03-09T16:07:10.267Z,19.27
2019-03-09T16:09:38.291Z,46.90
2019-03-09T16:12:06.424Z,14.20
2019-03-09T16:14:34.453Z,18.40
2019-03-09T16:17:05.905Z,24.87
2019-03-09T16:19:34.093Z,11.83
2019-03-09T16:22:02.076Z,12.80
2019-03-09T16:24:30.111Z,11.90
2019-03-09T16:26:58.094Z,15.50
2019-03-09T16:29:26.121Z,12.47
2019-03-09T16:31:54.155Z,19.50
2019-03-09T16:34:22.309Z,14.00
2019-03-09T16:36:50.364Z,11.30
2019-03-09T16:39:18.460Z,13.47
2019-03-09T16:41:46.454Z,18.90
2019-03-09T16:44:14.483Z,17.23
2019-03-09T16:46:42.457Z,12.73
2019-03-09T16:49:10.656Z,11.83
2019-03-09T16:51:38.791Z,14.33
2019-03-09T16:54:06.836Z,17.80
2019-03-09T16:56:35.111Z,17.50
2019-03-09T16:59:03.121Z,22.80
2019-03-09T17:01:31.112Z,17.90
2019-03-09T17:03:59.251Z,15.30
2019-03-09T17:06:30.289Z,16.57
2019-03-09T17:08:58.507Z,18.63
2019-03-09T17:11:26.744Z,15.93
2019-03-09T17:13:54.800Z,15.33
2019-03-09T17:16:22.796Z,17.60
2019-03-09T17:18:50.856Z,16.30
2019-03-09T17:21:18.923Z,21.40
2019-03-09T17:23:47.000Z,22.10
2019-03-09T17:26:15.142Z,17.27
2019-03-09T17:28:43.254Z,22.37
2019-03-09T17:31:11.271Z,22.00
2019-03-09T17:33:39.267Z,15.07
2019-03-09T17:36:07.251Z,19.50
2019-03-09T17:38:35.291Z,22.07
2019-03-09T17:41:03.276Z,17.93
2019-03-09T17:43:31.323Z,20.23
2019-03-09T17:46:00.315Z,25.10
2019-03-09T17:48:28.399Z,17.60
2019-03-09T17:50:56.498Z,18.63
2019-03-09T17:53:24.547Z,19.57
2019-03-09T17:55:52.574Z,20.97
2019-03-09T17:58:39.736Z,17.23
2019-03-09T18:01:07.932Z,22.00
2019-03-09T18:03:36.004Z,17.77
2019-03-09T18:06:04.056Z,19.77
2019-03-09T18:08:32.098Z,17.07
2019-03-09T18:11:01.501Z,15.43
2019-03-09T18:13:30.656Z,16.70
2019-03-09T18:15:58.608Z,19.60
2019-03-09T18:18:26.867Z,19.93
2019-03-09T18:20:54.896Z,16.03
2019-03-09T18:23:23.068Z,21.17
2019-03-09T18:25:52.856Z,12.73
2019-03-09T18:28:20.911Z,13.10
2019-03-09T18:30:48.936Z,18.57
2019-03-09T18:33:17.045Z,18.53
2019-03-09T18:35:45.266Z,17.87
2019-03-09T18:38:13.326Z,15.83
2019-03-09T18:40:41.522Z,15.20
2019-03-09T18:43:09.507Z,17.00
2019-03-09T18:45:37.684Z,14.97
2019-03-09T18:48:05.911Z,15.30
2019-03-09T18:50:34.008Z,11.03
2019-03-09T18:53:02.078Z,9.50
2019-03-09T18:55:30.240Z,13.40
2019-03-09T18:57:58.258Z,17.63
2019-03-09T19:00:26.639Z,14.33
2019-03-09T19:02:54.684Z,11.33
2019-03-09T19:05:22.772Z,13.53
2019-03-09T19:07:52.944Z,10.70
2019-03-09T19:10:20.737Z,9.97
2019-03-09T19:12:48.757Z,10.63
2019-03-09T19:15:17.261Z,9.13
2019-03-09T19:17:46.015Z,12.83
2019-03-09T19:20:14.046Z,11.20
2019-03-09T19:22:42.364Z,11.27
2019-03-09T19:25:10.736Z,9.93
2019-03-09T19:27:40.134Z,13.90
2019-03-09T19:30:14.383Z,9.30
2019-03-09T19:32:42.460Z,10.03
2019-03-09T19:35:10.622Z,13.57
2019-03-09T19:37:38.829Z,14.77
2019-03-09T19:40:07.438Z,24.43
2019-03-09T19:42:35.535Z,45.03
2019-03-09T19:45:03.724Z,30.03
2019-03-09T19:47:31.761Z,28.87
2019-03-09T19:50:02.710Z,17.40
2019-03-09T19:52:31.116Z,16.90
2019-03-09T19:54:59.128Z,11.67
2019-03-09T19:57:27.264Z,9.73
2019-03-09T19:59:55.441Z,8.77
2019-03-09T20:02:23.455Z,7.90
2019-03-09T20:04:51.747Z,8.97
2019-03-09T20:07:19.787Z,8.87
2019-03-09T20:09:47.865Z,10.63
2019-03-09T20:12:15.994Z,7.37
2019-03-09T20:14:44.099Z,7.27
2019-03-09T20:17:12.169Z,7.53
2019-03-09T20:19:40.216Z,7.63
2019-03-09T20:22:08.219Z,6.67
2019-03-09T20:24:36.341Z,6.47
2019-03-09T20:27:04.435Z,6.47
2019-03-09T20:29:32.491Z,5.83
2019-03-09T20:32:00.435Z,5.03
2019-03-09T20:34:28.408Z,3.53
2019-03-09T20:36:56.524Z,3.23
2019-03-09T20:39:24.549Z,3.07
2019-03-09T20:41:52.551Z,2.90
2019-03-09T20:44:20.568Z,2.97
2019-03-09T20:46:48.611Z,3.17
2019-03-09T20:49:16.700Z,3.23
2019-03-09T20:51:46.004Z,3.37
2019-03-09T20:54:14.119Z,2.93
2019-03-09T20:56:42.274Z,3.83
2019-03-09T20:59:10.324Z,2.87
2019-03-09T21:01:38.440Z,2.17
2019-03-09T21:04:06.536Z,2.60
2019-03-09T21:06:34.716Z,2.43
2019-03-09T21:09:02.732Z,1.73
2019-03-09T21:11:30.815Z,1.63
2019-03-09T21:13:58.903Z,1.50
2019-03-09T21:16:28.927Z,1.30
2019-03-09T21:18:56.771Z,2.57
2019-03-09T21:21:24.869Z,3.00
2019-03-09T21:23:52.868Z,0.67
2019-03-09T21:26:20.876Z,0.97
2019-03-09T21:28:48.943Z,1.00
2019-03-09T21:31:17.007Z,0.97
2019-03-09T21:33:45.067Z,1.53
2019-03-09T21:36:13.484Z,0.97
2019-03-09T21:38:41.571Z,0.97
2019-03-09T21:41:09.615Z,1.80
2019-03-09T21:43:37.838Z,3.40
2019-03-09T21:46:05.916Z,0.90
2019-03-09T21:48:33.904Z,0.83
2019-03-09T21:51:01.978Z,0.90
2019-03-09T21:53:29.960Z,2.53
2019-03-09T21:55:58.088Z,1.63
2019-03-09T21:58:26.101Z,0.67
2019-03-09T22:00:54.228Z,0.50
2019-03-09T22:03:22.310Z,0.50
2019-03-09T22:05:50.543Z,0.37
2019-03-09T22:08:18.581Z,0.63
2019-03-09T22:10:46.617Z,0.43
2019-03-09T22:13:14.653Z,0.40
2019-03-09T22:15:42.699Z,0.70
2019-03-09T22:18:17.816Z,0.43
2019-03-09T22:20:43.227Z,0.40
2019-03-09T22:23:11.187Z,0.40
2019-03-09T22:25:39.279Z,0.30
2019-03-09T22:28:07.327Z,0.30
2019-03-09T22:30:35.429Z,0.47
2019-03-09T22:33:04.718Z,1.23
2019-03-09T22:35:33.212Z,0.50
2019-03-09T22:38:01.170Z,0.60
2019-03-09T22:40:29.185Z,0.40
2019-03-09T22:42:57.218Z,0.60
2019-03-09T22:45:25.299Z,1.43
2019-03-09T22:47:53.315Z,0.40
2019-03-09T22:50:21.359Z,1.30
2019-03-09T22:52:49.429Z,0.30
2019-03-09T22:55:17.510Z,0.40
2019-03-09T22:57:45.577Z,1.07
2019-03-09T23:00:14.881Z,0.50
2019-03-09T23:02:44.828Z,0.93
2019-03-09T23:05:12.766Z,0.43
2019-03-09T23:07:40.739Z,0.50
2019-03-09T23:10:09.848Z,0.33
2019-03-09T23:12:40.887Z,0.63
2019-03-09T23:15:09.989Z,0.50
2019-03-09T23:17:38.078Z,0.67
2019-03-09T23:20:06.253Z,0.40
2019-03-09T23:22:34.375Z,0.43
2019-03-09T23:25:02.426Z,0.40
2019-03-09T23:27:30.528Z,0.80
2019-03-09T23:29:58.563Z,0.43
2019-03-09T23:32:26.590Z,0.50
2019-03-09T23:34:54.627Z,0.77
2019-03-09T23:37:22.648Z,0.93
2019-03-09T23:39:50.680Z,0.40
2019-03-09T23:42:18.609Z,0.57
2019-03-09T23:44:46.603Z,0.73
2019-03-09T23:47:14.583Z,0.50
2019-03-09T23:49:42.675Z,1.00
2019-03-09T23:52:10.755Z,0.83
2019-03-09T23:54:38.866Z,0.60
2019-03-09T23:57:06.955Z,0.37
2019-03-09T23:59:34.913Z,0.40
